Time;durP1;ratioP1;P1;durP2;ratioP2;P2;SDS_P1;SDS_P2;PMS_P1;PMS_P2;Temp;Humidity;BMP_temperature;BMP_pressure;BME280_temperature;BME280_humidity;BME280_pressure;Samples;Min_cycle;Max_cycle;Signal;HPM_P1;HPM_P2
2023/05/13 00:00:33;;;;;;;6.60;5.90;;;13.40;99.90;;;;;;4822964;29;20323;-56
2023/05/13 00:03:02;;;;;;;6.40;5.80;;;13.30;99.90;;;;;;4823196;29;20270;-56
2023/05/13 00:05:30;;;;;;;6.00;5.33;;;13.30;99.90;;;;;;4823489;29;20655;-56
2023/05/13 00:08:00;;;;;;;11.63;5.97;;;13.30;99.90;;;;;;4818056;29;20720;-56
2023/05/13 00:10:30;;;;;;;7.77;5.97;;;13.30;99.90;;;;;;4805210;29;20233;-55
2023/05/13 00:12:58;;;;;;;6.90;5.60;;;13.20;99.90;;;;;;4805482;29;20690;-56
2023/05/13 00:15:27;;;;;;;7.60;6.50;;;13.20;99.90;;;;;;4806412;29;20657;-56
2023/05/13 00:17:55;;;;;;;6.87;6.17;;;13.20;99.90;;;;;;4808798;29;20742;-55
2023/05/13 00:20:23;;;;;;;7.20;6.20;;;13.20;99.90;;;;;;4814886;29;20276;-56
2023/05/13 00:22:51;;;;;;;7.83;6.00;;;13.10;99.90;;;;;;4826576;29;20240;-56
2023/05/13 00:25:20;;;;;;;6.70;5.53;;;13.10;99.90;;;;;;4809240;29;20239;-56
2023/05/13 00:27:50;;;;;;;6.57;5.80;;;13.10;99.90;;;;;;4808457;29;20604;-56
2023/05/13 00:30:18;;;;;;;6.73;6.00;;;13.00;99.90;;;;;;4808001;29;20780;-56
2023/05/13 00:32:46;;;;;;;7.10;6.40;;;13.00;99.90;;;;;;4806852;29;20308;-56
2023/05/13 00:35:14;;;;;;;6.57;5.73;;;13.00;99.90;;;;;;4808495;29;20738;-56
2023/05/13 00:37:43;;;;;;;6.13;5.50;;;12.90;99.90;;;;;;4807967;29;20608;-56
2023/05/13 00:40:20;;;;;;;7.50;6.33;;;13.00;99.90;;;;;;4808315;29;20254;-56
2023/05/13 00:42:50;;;;;;;6.80;5.63;;;12.90;99.90;;;;;;4807763;29;20293;-57
2023/05/13 00:45:18;;;;;;;8.87;5.83;;;12.90;99.90;;;;;;4808425;29;20243;-56
2023/05/13 00:47:49;;;;;;;6.67;5.70;;;12.90;99.90;;;;;;4808017;29;20315;-56
2023/05/13 00:50:17;;;;;;;6.27;5.67;;;12.80;99.90;;;;;;4812649;29;20670;-56
2023/05/13 00:52:49;;;;;;;10.33;6.50;;;12.70;99.90;;;;;;4824568;29;20270;-56
2023/05/13 00:55:18;;;;;;;7.03;6.40;;;12.70;99.90;;;;;;4826162;29;20249;-57
2023/05/13 00:57:46;;;;;;;6.70;5.90;;;12.70;99.90;;;;;;4825656;29;20238;-56
2023/05/13 01:00:16;;;;;;;9.10;6.10;;;12.60;99.90;;;;;;4825647;29;20248;-56
2023/05/13 01:02:53;;;;;;;6.50;5.90;;;12.60;99.90;;;;;;4847000;24;20715;-63
2023/05/13 01:05:31;;;;;;;6.93;6.17;;;12.60;99.90;;;;;;4812751;29;20270;-63
2023/05/13 01:08:07;;;;;;;7.83;6.10;;;12.50;99.90;;;;;;4812984;29;20279;-63
2023/05/13 01:10:40;;;;;;;7.63;6.10;;;12.50;99.90;;;;;;4837899;29;20730;-63
2023/05/13 01:13:11;;;;;;;6.60;5.90;;;12.50;99.90;;;;;;4832980;29;20270;-63
2023/05/13 01:15:47;;;;;;;6.33;5.73;;;12.40;99.90;;;;;;4824557;29;20334;-63
2023/05/13 01:18:19;;;;;;;7.27;6.13;;;12.50;99.90;;;;;;4826006;29;20270;-63
2023/05/13 01:20:48;;;;;;;8.47;5.97;;;12.50;99.90;;;;;;4835149;29;20274;-63
2023/05/13 01:23:17;;;;;;;9.23;6.43;;;12.40;99.90;;;;;;4842267;29;20235;-63
2023/05/13 01:25:45;;;;;;;7.50;5.70;;;12.40;99.90;;;;;;4826940;29;20242;-63
2023/05/13 01:28:14;;;;;;;9.60;6.60;;;12.30;99.90;;;;;;4823544;29;20259;-63
2023/05/13 01:30:50;;;;;;;7.10;6.43;;;12.30;99.90;;;;;;4824197;29;20244;-63
2023/05/13 01:33:18;;;;;;;8.83;6.63;;;12.20;99.90;;;;;;4824520;29;20241;-63
2023/05/13 01:35:47;;;;;;;9.23;6.40;;;12.20;99.90;;;;;;4825591;29;20287;-63
2023/05/13 01:38:20;;;;;;;8.20;6.20;;;12.20;99.90;;;;;;4824188;29;20672;-63
2023/05/13 01:40:52;;;;;;;8.17;6.10;;;12.10;99.90;;;;;;4840860;29;20703;-63
2023/05/13 01:43:20;;;;;;;7.07;6.10;;;12.10;99.90;;;;;;4824443;29;20261;-63
2023/05/13 01:45:48;;;;;;;6.90;6.27;;;12.00;99.90;;;;;;4824156;29;20285;-63
2023/05/13 01:48:17;;;;;;;7.77;6.20;;;12.00;99.90;;;;;;4824186;29;20262;-63
2023/05/13 01:50:48;;;;;;;7.03;6.17;;;12.00;99.90;;;;;;4833765;29;20241;-63
2023/05/13 01:53:16;;;;;;;8.60;6.63;;;12.00;99.90;;;;;;4843662;29;20269;-63
2023/05/13 01:55:46;;;;;;;6.23;5.63;;;12.00;99.90;;;;;;4857577;29;20239;-63
2023/05/13 01:58:14;;;;;;;6.90;6.27;;;11.90;99.90;;;;;;4842324;29;20237;-63
2023/05/13 02:01:11;;;;;;;7.07;6.37;;;11.90;99.90;;;;;;4843018;29;20250;-63
2023/05/13 02:03:39;;;;;;;7.50;6.57;;;11.80;99.90;;;;;;4842184;29;20734;-63
2023/05/13 02:06:07;;;;;;;7.87;6.17;;;11.80;99.90;;;;;;4842515;29;20244;-63
2023/05/13 02:08:35;;;;;;;7.80;6.67;;;11.70;99.90;;;;;;4842162;29;20237;-63
2023/05/13 02:11:05;;;;;;;9.63;6.87;;;11.70;99.90;;;;;;4833365;29;20230;-63
2023/05/13 02:13:33;;;;;;;8.70;6.50;;;11.70;99.90;;;;;;4831135;29;20600;-63
2023/05/13 02:16:02;;;;;;;7.10;6.50;;;11.60;99.90;;;;;;4825142;29;20563;-63
2023/05/13 02:18:31;;;;;;;7.27;6.53;;;11.60;99.90;;;;;;4837050;29;20230;-63
2023/05/13 02:20:59;;;;;;;6.73;6.17;;;11.60;99.90;;;;;;4840749;29;20231;-64
2023/05/13 02:23:28;;;;;;;6.53;5.83;;;11.60;99.90;;;;;;4838504;29;20261;-63
2023/05/13 02:25:56;;;;;;;8.70;6.47;;;11.50;99.90;;;;;;4825011;29;20227;-63
2023/05/13 02:28:25;;;;;;;8.00;6.17;;;11.50;99.90;;;;;;4825134;29;20246;-63
2023/05/13 02:30:53;;;;;;;8.63;6.87;;;11.40;99.90;;;;;;4823210;29;20326;-63
2023/05/13 02:33:22;;;;;;;8.03;6.33;;;11.40;99.90;;;;;;4823887;29;20241;-63
2023/05/13 02:35:51;;;;;;;8.20;6.87;;;11.40;99.90;;;;;;4823380;29;20707;-63
2023/05/13 02:38:19;;;;;;;8.50;6.30;;;11.40;99.90;;;;;;4823356;29;20230;-63
2023/05/13 02:40:48;;;;;;;6.97;5.90;;;11.30;99.90;;;;;;4824300;29;20261;-63
2023/05/13 02:43:16;;;;;;;9.93;6.63;;;11.30;99.90;;;;;;4830995;29;20267;-63
2023/05/13 02:45:56;;;;;;;7.33;6.10;;;11.30;99.90;;;;;;4838815;29;20598;-63
2023/05/13 02:48:24;;;;;;;8.37;6.33;;;11.30;99.90;;;;;;4838446;29;20240;-64
2023/05/13 02:50:53;;;;;;;7.13;6.17;;;11.30;99.90;;;;;;4833780;29;20586;-63
2023/05/13 02:53:22;;;;;;;7.27;6.37;;;11.20;99.90;;;;;;4841325;29;20292;-63
2023/05/13 02:55:55;;;;;;;10.33;6.57;;;11.20;99.90;;;;;;4841636;29;20233;-63
2023/05/13 02:58:26;;;;;;;7.03;6.33;;;11.20;99.90;;;;;;4842635;29;20669;-63
2023/05/13 03:00:56;;;;;;;8.63;6.63;;;11.10;99.90;;;;;;4840855;29;20741;-63
2023/05/13 03:03:25;;;;;;;7.20;6.50;;;11.10;99.90;;;;;;4842444;29;20273;-63
2023/05/13 03:05:54;;;;;;;8.33;7.13;;;11.10;99.90;;;;;;4842523;29;20233;-63
2023/05/13 03:08:22;;;;;;;8.73;7.00;;;11.00;99.90;;;;;;4841336;29;20235;-63
2023/05/13 03:10:51;;;;;;;9.33;6.20;;;11.00;99.90;;;;;;4835514;29;20234;-63
2023/05/13 03:13:20;;;;;;;7.07;6.37;;;11.00;99.90;;;;;;4830622;29;20338;-63
2023/05/13 03:15:48;;;;;;;8.37;6.30;;;11.00;99.90;;;;;;4824225;29;20235;-63
2023/05/13 03:18:17;;;;;;;9.87;6.93;;;11.00;99.90;;;;;;4823034;29;20238;-63
2023/05/13 03:20:45;;;;;;;9.03;6.73;;;10.90;99.90;;;;;;4838117;29;20253;-63
2023/05/13 03:23:13;;;;;;;9.13;6.70;;;10.90;99.90;;;;;;4840973;29;20236;-63
2023/05/13 03:25:43;;;;;;;7.97;7.17;;;10.90;99.90;;;;;;4822970;29;20611;-63
2023/05/13 03:28:12;;;;;;;7.27;6.57;;;10.90;99.90;;;;;;4824157;29;20231;-63
2023/05/13 03:30:43;;;;;;;7.40;6.43;;;10.80;99.90;;;;;;4822189;29;20252;-63
2023/05/13 03:33:29;;;;;;;9.00;6.97;;;10.80;99.90;;;;;;4829215;29;20263;-63
2023/05/13 03:35:57;;;;;;;7.07;6.37;;;10.80;99.90;;;;;;4824068;29;20278;-63
2023/05/13 03:38:30;;;;;;;9.03;6.13;;;10.80;99.90;;;;;;4822801;29;20288;-63
2023/05/13 03:40:58;;;;;;;8.37;6.30;;;10.80;99.90;;;;;;4824134;29;20241;-63
2023/05/13 03:43:27;;;;;;;7.93;7.00;;;10.80;99.90;;;;;;4840593;29;20238;-63
2023/05/13 03:45:59;;;;;;;7.87;6.80;;;10.80;99.90;;;;;;4825448;29;20250;-63
2023/05/13 03:48:29;;;;;;;8.97;6.57;;;10.80;99.90;;;;;;4822481;29;20291;-63
2023/05/13 03:51:01;;;;;;;8.03;6.20;;;10.80;99.90;;;;;;4835196;29;20226;-63
2023/05/13 03:53:30;;;;;;;7.70;6.50;;;10.80;99.90;;;;;;4845489;29;20233;-63
2023/05/13 03:55:58;;;;;;;6.87;6.27;;;10.80;99.90;;;;;;4844421;29;20747;-63
2023/05/13 03:58:28;;;;;;;7.70;6.47;;;10.80;99.90;;;;;;4844473;29;20299;-63
2023/05/13 04:00:57;;;;;;;11.30;7.27;;;10.90;99.90;;;;;;4809780;29;20315;-63
2023/05/13 04:03:27;;;;;;;8.33;6.77;;;10.90;99.90;;;;;;4808934;29;20271;-63
2023/05/13 04:05:56;;;;;;;8.57;6.30;;;10.90;99.90;;;;;;4809162;29;20628;-63
2023/05/13 04:08:24;;;;;;;7.83;6.93;;;10.90;99.90;;;;;;4807675;29;20718;-64
2023/05/13 04:10:54;;;;;;;10.13;7.07;;;11.00;99.90;;;;;;4809006;29;20232;-63
2023/05/13 04:13:22;;;;;;;8.90;6.53;;;11.00;99.90;;;;;;4807880;29;20243;-63
2023/05/13 04:15:53;;;;;;;7.77;6.73;;;11.00;99.90;;;;;;4825974;29;20263;-63
2023/05/13 04:18:21;;;;;;;7.07;6.37;;;11.00;99.90;;;;;;4845396;29;20230;-63
2023/05/13 04:20:49;;;;;;;7.20;6.50;;;11.10;99.90;;;;;;4842402;29;20244;-63
2023/05/13 04:23:19;;;;;;;7.73;6.87;;;11.10;99.90;;;;;;4843086;29;20236;-63
2023/05/13 04:25:51;;;;;;;7.73;6.27;;;11.20;99.90;;;;;;4826762;29;20695;-63
2023/05/13 04:28:19;;;;;;;8.27;6.63;;;11.20;99.90;;;;;;4825455;29;20767;-63
2023/05/13 04:30:49;;;;;;;7.77;6.97;;;11.30;99.90;;;;;;4824794;29;20648;-63
2023/05/13 04:33:17;;;;;;;8.37;6.37;;;11.40;99.90;;;;;;4825377;29;20243;-63
2023/05/13 04:35:47;;;;;;;7.33;6.60;;;11.50;99.90;;;;;;4825196;29;20242;-63
2023/05/13 04:38:17;;;;;;;8.83;7.00;;;11.50;99.90;;;;;;4826852;29;20242;-63
2023/05/13 04:40:47;;;;;;;7.37;6.50;;;11.60;99.90;;;;;;4825164;29;20249;-63
2023/05/13 04:43:22;;;;;;;7.77;6.97;;;11.70;99.90;;;;;;4824581;29;20245;-63
2023/05/13 04:45:56;;;;;;;8.97;7.07;;;11.80;99.90;;;;;;4841750;29;20237;-63
2023/05/13 04:48:26;;;;;;;8.07;6.80;;;11.90;99.90;;;;;;4843526;29;20241;-63
2023/05/13 04:50:57;;;;;;;6.53;5.93;;;12.00;99.90;;;;;;4840106;29;20273;-63
2023/05/13 04:53:25;;;;;;;8.83;7.00;;;12.10;99.90;;;;;;4844537;29;20233;-63
2023/05/13 04:55:59;;;;;;;7.30;6.47;;;12.20;99.90;;;;;;4837714;29;20247;-63
2023/05/13 04:58:29;;;;;;;9.43;6.77;;;12.30;99.90;;;;;;4824843;29;20269;-63
2023/05/13 05:00:57;;;;;;;7.53;6.77;;;12.50;99.90;;;;;;4825476;29;20329;-63
2023/05/13 05:03:26;;;;;;;7.37;6.30;;;12.50;99.90;;;;;;4824777;29;20254;-63
2023/05/13 05:05:54;;;;;;;7.50;6.80;;;12.70;99.90;;;;;;4824976;29;20322;-63
2023/05/13 05:08:24;;;;;;;8.03;6.83;;;12.80;99.90;;;;;;4824672;29;20318;-63
2023/05/13 05:10:52;;;;;;;8.93;7.37;;;13.00;99.90;;;;;;4824733;29;20262;-64
2023/05/13 05:13:22;;;;;;;8.63;7.80;;;13.10;99.90;;;;;;4824773;29;20722;-63
2023/05/13 05:15:50;;;;;;;10.83;7.87;;;13.30;99.90;;;;;;4823768;29;20577;-63
2023/05/13 05:18:18;;;;;;;9.47;7.83;;;13.30;99.90;;;;;;4828426;29;20729;-63
2023/05/13 05:20:50;;;;;;;10.13;7.93;;;13.40;99.90;;;;;;4831907;29;20295;-63
2023/05/13 05:23:20;;;;;;;9.90;7.83;;;13.60;99.90;;;;;;4840342;29;20235;-63
2023/05/13 05:25:50;;;;;;;8.03;7.23;;;13.80;99.90;;;;;;4824460;29;20235;-63
2023/05/13 05:28:39;;;;;;;9.70;7.73;;;13.90;99.90;;;;;;4826654;29;20240;-63
2023/05/13 05:31:08;;;;;;;9.60;7.33;;;14.10;99.90;;;;;;4823514;29;20243;-63
2023/05/13 05:33:37;;;;;;;10.63;8.77;;;14.30;99.90;;;;;;4807654;29;20713;-62
2023/05/13 05:36:06;;;;;;;8.47;7.57;;;14.20;99.90;;;;;;4810304;29;20246;-63
2023/05/13 05:38:35;;;;;;;11.50;8.20;;;14.40;99.90;;;;;;4823995;29;20751;-63
2023/05/13 05:41:04;;;;;;;11.77;8.33;;;14.40;99.90;;;;;;4824983;29;20315;-63
2023/05/13 05:43:32;;;;;;;9.10;8.20;;;14.40;99.90;;;;;;4823710;29;20653;-63
2023/05/13 05:46:03;;;;;;;11.90;7.57;;;14.60;99.90;;;;;;4825063;29;20244;-63
2023/05/13 05:48:32;;;;;;;8.40;7.60;;;14.80;99.90;;;;;;4825402;29;20239;-62
2023/05/13 05:51:03;;;;;;;8.63;7.70;;;15.10;99.90;;;;;;4824913;29;20231;-62
2023/05/13 05:53:36;;;;;;;9.03;7.77;;;15.30;99.90;;;;;;4850159;29;20263;-62
2023/05/13 05:56:05;;;;;;;9.03;7.90;;;15.40;99.90;;;;;;4823480;29;20714;-62
2023/05/13 05:58:34;;;;;;;9.30;7.40;;;15.60;99.90;;;;;;4825092;29;20641;-62
2023/05/13 06:01:04;;;;;;;8.87;8.07;;;15.80;99.90;;;;;;4823401;29;20239;-62
2023/05/13 06:03:33;;;;;;;9.27;7.77;;;15.90;99.90;;;;;;4823362;29;20250;-61
2023/05/13 06:06:01;;;;;;;10.70;8.13;;;15.90;99.90;;;;;;4821240;29;20243;-62
2023/05/13 06:08:30;;;;;;;10.37;7.60;;;16.00;99.90;;;;;;4825922;29;20240;-61
2023/05/13 06:11:01;;;;;;;9.47;7.27;;;16.00;99.90;;;;;;4823363;29;20228;-62
2023/05/13 06:13:29;;;;;;;8.33;7.53;;;16.20;99.90;;;;;;4824059;29;20596;-61
2023/05/13 06:15:57;;;;;;;10.13;7.97;;;16.40;99.90;;;;;;4823272;29;20231;-61
2023/05/13 06:18:27;;;;;;;9.50;7.80;;;16.60;99.90;;;;;;4822971;29;20247;-62
2023/05/13 06:20:55;;;;;;;8.03;7.23;;;16.70;99.90;;;;;;4825539;29;20223;-61
2023/05/13 06:23:23;;;;;;;8.20;7.40;;;16.80;99.90;;;;;;4830966;29;20236;-61
2023/05/13 06:25:52;;;;;;;8.93;7.13;;;16.90;99.90;;;;;;4823141;29;20235;-62
2023/05/13 06:28:20;;;;;;;9.23;7.67;;;17.00;99.90;;;;;;4824185;29;20239;-61
2023/05/13 06:30:50;;;;;;;9.87;6.53;;;17.10;99.90;;;;;;4822597;29;20621;-61
2023/05/13 06:33:18;;;;;;;8.23;7.43;;;17.20;99.90;;;;;;4824192;29;20228;-61
2023/05/13 06:35:48;;;;;;;8.40;7.00;;;17.30;99.90;;;;;;4824039;29;20288;-61
2023/05/13 06:38:19;;;;;;;9.27;6.80;;;17.70;99.90;;;;;;4822955;29;20588;-61
2023/05/13 06:40:48;;;;;;;9.37;6.40;;;17.70;99.90;;;;;;4823048;29;20233;-61
2023/05/13 06:43:17;;;;;;;8.70;7.53;;;17.80;99.90;;;;;;4823431;29;20252;-61
2023/05/13 06:45:48;;;;;;;7.20;6.20;;;17.80;99.90;;;;;;4822790;29;20692;-62
2023/05/13 06:48:17;;;;;;;9.37;7.47;;;18.10;99.90;;;;;;4824386;29;20301;-62
2023/05/13 06:50:45;;;;;;;8.47;7.23;;;18.10;99.90;;;;;;4832592;29;20593;-61
2023/05/13 06:53:14;;;;;;;8.40;7.00;;;18.30;99.90;;;;;;4842332;29;20303;-61
2023/05/13 06:55:43;;;;;;;9.07;6.83;;;18.40;99.90;;;;;;4842424;29;20236;-61
2023/05/13 06:58:11;;;;;;;10.20;6.80;;;18.50;99.90;;;;;;4842382;29;20286;-61
2023/05/13 07:00:40;;;;;;;7.37;6.67;;;18.50;99.90;;;;;;4830917;29;20278;-61
2023/05/13 07:03:08;;;;;;;9.23;6.60;;;18.50;99.90;;;;;;4823584;29;20331;-61
2023/05/13 07:05:36;;;;;;;7.43;6.50;;;18.60;99.90;;;;;;4823626;29;20241;-60
2023/05/13 07:08:07;;;;;;;9.10;7.20;;;19.00;99.90;;;;;;4821562;29;20301;-62
2023/05/13 07:10:38;;;;;;;8.47;6.53;;;19.20;99.90;;;;;;4823887;29;20340;-61
2023/05/13 07:13:06;;;;;;;9.43;6.77;;;19.40;99.90;;;;;;4823898;29;20679;-60
2023/05/13 07:15:35;;;;;;;8.90;6.47;;;19.40;99.90;;;;;;4824284;29;20767;-61
2023/05/13 07:18:03;;;;;;;8.50;6.23;;;19.60;99.90;;;;;;4825172;29;20254;-61
2023/05/13 07:20:31;;;;;;;7.77;6.53;;;19.90;99.90;;;;;;4831350;29;20732;-61
2023/05/13 07:23:00;;;;;;;7.03;6.10;;;20.00;99.90;;;;;;4835722;29;20281;-60
2023/05/13 07:25:29;;;;;;;7.87;7.07;;;20.40;99.90;;;;;;4804849;29;20704;-60
2023/05/13 07:27:59;;;;;;;9.63;6.87;;;20.40;99.90;;;;;;4806025;29;20254;-61
2023/05/13 07:30:30;;;;;;;6.83;6.13;;;20.30;99.90;;;;;;4805394;29;20247;-60
2023/05/13 07:33:01;;;;;;;7.80;6.20;;;20.50;99.90;;;;;;4833090;29;20229;-61
2023/05/13 07:35:30;;;;;;;7.10;6.03;;;20.70;99.90;;;;;;4841644;29;20250;-60
2023/05/13 07:37:59;;;;;;;8.20;6.57;;;20.60;99.90;;;;;;4842179;29;20250;-60
2023/05/13 07:40:27;;;;;;;9.43;6.43;;;20.40;99.90;;;;;;4841858;29;20222;-60
2023/05/13 07:42:55;;;;;;;9.80;6.53;;;20.40;99.90;;;;;;4825433;29;20255;-60
2023/05/13 07:45:25;;;;;;;6.87;5.60;;;20.40;99.90;;;;;;4822261;29;20348;-60
2023/05/13 07:47:53;;;;;;;7.17;5.80;;;20.50;99.90;;;;;;4823698;29;20231;-60
2023/05/13 07:50:22;;;;;;;8.67;6.03;;;20.80;99.90;;;;;;4829110;29;20231;-60
2023/05/13 07:52:50;;;;;;;7.77;5.77;;;21.00;99.90;;;;;;4841747;29;20228;-61
2023/05/13 07:55:19;;;;;;;7.47;5.70;;;21.30;99.90;;;;;;4830330;29;20265;-60
2023/05/13 07:57:49;;;;;;;8.80;6.43;;;21.50;99.90;;;;;;4823861;29;20227;-60
2023/05/13 08:00:18;;;;;;;12.40;6.10;;;21.60;99.90;;;;;;4823198;29;20228;-60
2023/05/13 08:02:48;;;;;;;9.87;5.53;;;21.70;99.90;;;;;;4826345;29;20586;-60
2023/05/13 08:05:16;;;;;;;7.63;5.50;;;22.10;99.90;;;;;;4824490;29;20243;-59
2023/05/13 08:07:44;;;;;;;13.90;6.70;;;22.40;99.90;;;;;;4824405;29;20327;-59
2023/05/13 08:10:13;;;;;;;8.37;5.80;;;22.60;99.90;;;;;;4824338;29;20255;-60
2023/05/13 08:12:42;;;;;;;6.90;5.10;;;22.60;99.90;;;;;;4816093;29;20246;-59
2023/05/13 08:15:13;;;;;;;8.90;5.53;;;22.80;99.90;;;;;;4823442;29;20236;-60
2023/05/13 08:17:43;;;;;;;6.97;5.63;;;22.80;99.90;;;;;;4823322;29;20637;-59
2023/05/13 08:20:14;;;;;;;9.27;5.37;;;22.70;99.90;;;;;;4825050;29;20247;-60
2023/05/13 08:22:42;;;;;;;7.83;5.33;;;22.60;99.90;;;;;;4838757;29;20228;-60
2023/05/13 08:25:11;;;;;;;8.90;4.87;;;22.20;99.90;;;;;;4842171;29;20769;-60
2023/05/13 08:27:39;;;;;;;8.50;4.97;;;22.50;99.90;;;;;;4841723;29;20625;-59
2023/05/13 08:30:08;;;;;;;6.30;5.27;;;22.80;99.90;;;;;;4841936;29;20659;-60
2023/05/13 08:32:36;;;;;;;6.50;4.80;;;22.60;99.90;;;;;;4840940;29;20251;-60
2023/05/13 08:35:08;;;;;;;8.27;5.20;;;22.60;99.90;;;;;;4841474;29;20237;-60
2023/05/13 08:37:37;;;;;;;10.13;5.17;;;22.80;99.90;;;;;;4844399;29;20302;-60
2023/05/13 08:40:07;;;;;;;7.90;4.40;;;23.00;99.90;;;;;;4844968;29;20270;-60
2023/05/13 08:42:39;;;;;;;5.87;4.50;;;23.50;99.90;;;;;;4844606;29;20619;-59
2023/05/13 08:45:09;;;;;;;7.20;4.47;;;23.30;99.90;;;;;;4844927;29;20258;-60
2023/05/13 08:47:43;;;;;;;6.80;4.30;;;23.50;99.90;;;;;;4845068;29;20279;-60
2023/05/13 08:50:12;;;;;;;6.33;4.67;;;23.80;99.90;;;;;;4841326;29;20284;-60
2023/05/13 08:52:43;;;;;;;8.80;4.43;;;23.80;99.90;;;;;;4844689;29;20561;-60
2023/05/13 08:55:13;;;;;;;9.67;4.73;;;23.70;99.90;;;;;;4844450;29;20703;-59
2023/05/13 08:57:41;;;;;;;5.43;4.23;;;23.60;99.90;;;;;;4844606;29;20227;-60
2023/05/13 09:00:15;;;;;;;5.20;4.30;;;23.70;99.90;;;;;;4844197;29;20247;-60
2023/05/13 09:02:47;;;;;;;4.57;4.10;;;24.30;99.90;;;;;;4844065;29;20252;-60
2023/05/13 09:05:15;;;;;;;8.70;4.13;;;24.50;99.90;;;;;;4844409;29;20234;-59
2023/05/13 09:07:48;;;;;;;13.97;4.50;;;23.90;99.90;;;;;;4844405;29;21830;-60
2023/05/13 09:10:17;;;;;;;7.40;4.63;;;23.50;99.90;;;;;;4844398;29;20249;-59
2023/05/13 09:12:48;;;;;;;5.47;3.80;;;23.80;99.90;;;;;;4841386;29;20731;-59
2023/05/13 09:15:17;;;;;;;6.87;3.97;;;24.10;99.90;;;;;;4844196;29;20327;-59
2023/05/13 09:17:51;;;;;;;5.47;4.47;;;24.10;99.90;;;;;;4844045;29;20220;-60
2023/05/13 09:20:20;;;;;;;9.93;4.30;;;24.10;99.90;;;;;;4841796;29;20704;-59
2023/05/13 09:22:52;;;;;;;7.10;4.13;;;24.20;99.90;;;;;;4844019;29;20693;-60
2023/05/13 09:25:22;;;;;;;7.67;4.13;;;24.20;99.90;;;;;;4844303;29;20728;-59
2023/05/13 09:27:56;;;;;;;5.10;4.17;;;24.40;99.90;;;;;;4843930;29;20670;-60
2023/05/13 09:30:25;;;;;;;6.77;3.97;;;24.20;99.90;;;;;;4843201;29;20327;-59
2023/05/13 09:33:08;;;;;;;7.50;4.13;;;24.60;99.90;;;;;;4844206;29;20584;-59
2023/05/13 09:35:38;;;;;;;6.87;3.90;;;24.60;99.90;;;;;;4843809;29;20240;-60
2023/05/13 09:38:15;;;;;;;8.43;3.87;;;24.50;99.90;;;;;;4843765;29;20239;-59
2023/05/13 09:40:50;;;;;;;13.07;4.20;;;24.20;99.90;;;;;;4843854;29;20260;-59
2023/05/13 09:43:20;;;;;;;7.77;4.17;;;24.20;99.90;;;;;;4843925;29;20291;-60
2023/05/13 09:45:52;;;;;;;6.13;3.53;;;24.50;99.90;;;;;;4843755;29;20617;-59
2023/05/13 09:48:21;;;;;;;6.43;3.97;;;24.90;99.90;;;;;;4843071;29;20720;-59
2023/05/13 09:50:50;;;;;;;7.33;3.87;;;24.80;99.90;;;;;;4840078;29;20233;-60
2023/05/13 09:53:20;;;;;;;5.07;3.50;;;24.80;99.90;;;;;;4843485;29;20284;-59
2023/05/13 09:55:50;;;;;;;5.60;3.37;;;25.40;99.90;;;;;;4843240;29;20237;-60
2023/05/13 09:58:19;;;;;;;5.63;3.33;;;25.70;99.90;;;;;;4843302;29;20327;-59
2023/05/13 10:00:48;;;;;;;7.07;3.30;;;25.90;99.90;;;;;;4830545;29;20808;-61
2023/05/13 10:03:19;;;;;;;4.43;3.27;;;25.60;99.90;;;;;;4825259;29;20347;-59
2023/05/13 10:05:49;;;;;;;6.33;3.30;;;25.50;99.40;;;;;;4824863;29;20334;-60
2023/05/13 10:08:20;;;;;;;4.03;3.60;;;25.60;98.80;;;;;;4825216;29;20258;-60
2023/05/13 10:10:50;;;;;;;7.60;3.80;;;25.70;99.30;;;;;;4825177;29;20242;-59
2023/05/13 10:13:23;;;;;;;4.97;3.23;;;25.80;99.10;;;;;;4824955;29;20727;-59
2023/05/13 10:15:54;;;;;;;3.20;2.73;;;26.10;98.60;;;;;;4824952;29;20258;-59
2023/05/13 10:18:23;;;;;;;6.13;3.50;;;26.50;98.20;;;;;;4824769;29;20239;-59
2023/05/13 10:20:52;;;;;;;4.13;3.53;;;26.30;97.10;;;;;;4833532;29;20578;-60
2023/05/13 10:23:23;;;;;;;4.67;3.17;;;26.20;95.80;;;;;;4843248;29;20326;-59
2023/05/13 10:25:54;;;;;;;6.40;2.90;;;26.30;97.70;;;;;;4843286;29;20649;-60
2023/05/13 10:28:23;;;;;;;5.13;3.07;;;26.10;96.60;;;;;;4843168;29;20254;-60
2023/05/13 10:30:51;;;;;;;5.33;3.50;;;26.30;95.60;;;;;;4842163;29;20320;-60
2023/05/13 10:33:20;;;;;;;8.20;3.30;;;26.20;96.10;;;;;;4843295;29;20629;-59
2023/05/13 10:36:00;;;;;;;6.23;3.20;;;26.80;96.40;;;;;;4842534;29;20242;-59
2023/05/13 10:38:47;;;;;;;7.67;3.73;;;26.10;94.40;;;;;;4842734;29;20326;-60
2023/05/13 10:41:32;;;;;;;4.93;3.20;;;25.90;94.10;;;;;;4843083;29;20274;-59
2023/05/13 10:44:01;;;;;;;4.97;3.00;;;26.00;95.20;;;;;;4842504;29;20260;-60
2023/05/13 10:46:31;;;;;;;4.40;3.20;;;26.30;94.20;;;;;;4842779;29;20597;-65
2023/05/13 10:49:00;;;;;;;8.67;3.60;;;26.30;93.20;;;;;;4842558;29;20245;-66
2023/05/13 10:51:28;;;;;;;7.97;3.20;;;26.20;92.90;;;;;;4838834;29;20242;-65
2023/05/13 10:53:58;;;;;;;7.20;2.70;;;25.60;92.60;;;;;;4841193;29;20283;-65
2023/05/13 10:56:28;;;;;;;4.23;3.30;;;25.80;93.10;;;;;;4843367;29;20235;-66
2023/05/13 10:59:02;;;;;;;4.93;3.10;;;25.50;92.00;;;;;;4842161;29;20245;-65
2023/05/13 11:01:33;;;;;;;4.97;3.17;;;25.70;93.60;;;;;;4841869;29;20756;-65
2023/05/13 11:04:03;;;;;;;5.77;3.20;;;25.90;93.80;;;;;;4842282;29;20250;-66
2023/05/13 11:06:35;;;;;;;5.50;3.53;;;26.00;93.80;;;;;;4840834;29;20268;-66
2023/05/13 11:09:07;;;;;;;6.50;3.37;;;26.20;93.50;;;;;;4842674;29;20817;-66
2023/05/13 11:11:39;;;;;;;6.17;3.17;;;26.50;94.50;;;;;;4842187;29;20250;-66
2023/05/13 11:14:14;;;;;;;7.00;3.90;;;27.00;94.10;;;;;;4842374;29;20235;-66
2023/05/13 11:16:47;;;;;;;5.30;2.87;;;26.90;92.60;;;;;;4839377;29;20241;-65
2023/05/13 11:19:21;;;;;;;6.17;3.17;;;27.10;93.90;;;;;;4842031;29;20571;-66
2023/05/13 11:21:52;;;;;;;7.63;3.57;;;26.90;92.80;;;;;;4839571;29;20711;-66
2023/05/13 11:24:23;;;;;;;3.97;3.00;;;26.40;92.90;;;;;;4842351;29;20243;-66
2023/05/13 11:26:52;;;;;;;6.70;3.23;;;26.20;92.60;;;;;;4842106;29;20238;-65
2023/05/13 11:29:31;;;;;;;7.10;3.40;;;25.60;93.90;;;;;;4842137;29;20599;-63
2023/05/13 11:32:00;;;;;;;4.50;3.17;;;25.20;92.70;;;;;;4841578;29;20246;-66
2023/05/13 11:34:30;;;;;;;8.53;3.47;;;25.50;92.90;;;;;;4841933;29;20262;-66
2023/05/13 11:37:08;;;;;;;6.47;3.10;;;25.90;93.10;;;;;;4842008;29;20239;-65
2023/05/13 11:39:40;;;;;;;6.67;3.50;;;25.90;91.20;;;;;;4842254;29;20238;-66
2023/05/13 11:42:09;;;;;;;4.47;2.90;;;25.80;92.20;;;;;;4842143;29;20592;-65
2023/05/13 11:44:45;;;;;;;4.57;3.50;;;25.60;92.50;;;;;;4842014;29;20771;-65
2023/05/13 11:47:14;;;;;;;5.57;3.03;;;25.60;92.10;;;;;;4841957;29;20773;-65
2023/05/13 11:49:44;;;;;;;6.13;3.37;;;25.40;93.00;;;;;;4838694;29;20262;-65
2023/05/13 11:52:14;;;;;;;7.10;3.10;;;25.00;92.80;;;;;;4841992;29;20771;-65
2023/05/13 11:54:47;;;;;;;4.67;3.40;;;25.20;93.30;;;;;;4841853;29;20328;-65
2023/05/13 11:57:20;;;;;;;5.87;3.30;;;25.30;93.60;;;;;;4842122;29;20242;-65
2023/05/13 11:59:52;;;;;;;6.03;3.17;;;25.10;94.10;;;;;;4841985;29;20242;-66
2023/05/13 12:02:22;;;;;;;4.80;3.03;;;24.80;93.50;;;;;;4841243;29;20615;-65
2023/05/13 12:04:51;;;;;;;7.20;3.23;;;24.80;93.30;;;;;;4841725;29;20268;-65
2023/05/13 12:07:21;;;;;;;6.30;3.33;;;24.70;93.30;;;;;;4839558;29;20237;-65
2023/05/13 12:09:51;;;;;;;6.30;3.70;;;24.80;93.00;;;;;;4823552;29;20765;-65
2023/05/13 12:12:20;;;;;;;4.03;3.23;;;25.00;92.60;;;;;;4826544;29;20282;-65
2023/05/13 12:14:50;;;;;;;3.23;2.70;;;24.90;92.90;;;;;;4827917;29;20695;-65
2023/05/13 12:17:19;;;;;;;3.90;2.83;;;25.00;93.50;;;;;;4827723;29;20590;-65
2023/05/13 12:20:07;;;;;;;5.33;2.80;;;25.00;91.10;;;;;;4829005;29;20234;-65
2023/05/13 12:22:36;;;;;;;4.97;2.90;;;24.90;92.10;;;;;;4847522;29;20246;-65
2023/05/13 12:25:36;;;;;;;5.50;3.23;;;25.10;91.40;;;;;;4845719;29;20242;-65
2023/05/13 12:28:08;;;;;;;7.17;3.20;;;24.90;90.40;;;;;;4844924;29;20244;-65
2023/05/13 12:30:37;;;;;;;5.50;3.00;;;24.70;91.70;;;;;;4844798;29;20702;-65
2023/05/13 12:33:05;;;;;;;5.07;3.00;;;24.50;91.10;;;;;;4844934;29;20237;-65
2023/05/13 12:35:33;;;;;;;6.47;2.70;;;24.50;91.90;;;;;;4845006;29;20225;-65
2023/05/13 12:38:03;;;;;;;5.57;2.73;;;24.50;89.40;;;;;;4845136;29;20682;-64
2023/05/13 12:40:33;;;;;;;4.07;2.73;;;24.60;90.20;;;;;;4844683;29;20240;-65
2023/05/13 12:43:02;;;;;;;6.17;3.00;;;24.40;90.70;;;;;;4845017;29;20245;-65
2023/05/13 12:45:31;;;;;;;5.50;2.80;;;24.10;90.70;;;;;;4844713;29;20605;-65
2023/05/13 12:48:00;;;;;;;4.60;2.83;;;23.90;90.30;;;;;;4844945;29;20713;-65
2023/05/13 12:50:28;;;;;;;3.37;3.00;;;23.80;90.70;;;;;;4841395;29;20230;-65
2023/05/13 12:52:58;;;;;;;4.40;2.93;;;23.80;90.80;;;;;;4844862;29;20237;-65
2023/05/13 12:55:27;;;;;;;3.50;2.80;;;24.10;91.20;;;;;;4844338;29;20237;-65
2023/05/13 12:57:59;;;;;;;4.00;2.50;;;24.10;90.60;;;;;;4844488;29;20240;-64
2023/05/13 13:00:28;;;;;;;5.07;2.70;;;24.00;89.50;;;;;;4843895;29;20289;-64